createdAt,value
2022-10-17T00:00:41.163Z,13.20
2022-10-17T00:03:42.866Z,11.77
2022-10-17T00:06:44.579Z,12.55
2022-10-17T00:09:46.411Z,13.50
2022-10-17T00:12:48.354Z,12.52
2022-10-17T00:15:50.060Z,11.77
2022-10-17T00:18:52.144Z,13.80
2022-10-17T00:21:53.910Z,12.07
2022-10-17T00:24:55.738Z,11.70
2022-10-17T00:27:57.483Z,13.45
2022-10-17T00:31:01.280Z,12.68
2022-10-17T00:34:03.016Z,8.38
2022-10-17T00:37:04.727Z,13.30
2022-10-17T00:40:07.442Z,12.27
2022-10-17T00:43:18.446Z,9.52
2022-10-17T00:46:21.477Z,7.15
2022-10-17T00:49:26.464Z,12.05
2022-10-17T00:52:31.113Z,11.85
2022-10-17T00:55:45.199Z,9.50
2022-10-17T00:58:48.018Z,14.65
2022-10-17T01:02:15.702Z,13.05
2022-10-17T01:05:19.349Z,12.10
2022-10-17T01:08:21.271Z,13.48
2022-10-17T01:11:45.664Z,10.90
2022-10-17T01:15:08.858Z,13.15
2022-10-17T01:18:39.561Z,12.40
2022-10-17T01:21:55.058Z,13.18
2022-10-17T01:25:41.114Z,12.55
2022-10-17T01:29:01.458Z,9.43
2022-10-17T01:32:14.934Z,12.82
2022-10-17T01:35:25.388Z,11.52
2022-10-17T01:38:34.651Z,13.73
2022-10-17T01:41:50.512Z,13.38
2022-10-17T01:45:10.778Z,13.23
2022-10-17T01:48:21.722Z,12.85
2022-10-17T01:51:30.684Z,11.20
2022-10-17T01:54:47.411Z,13.02
2022-10-17T01:57:57.564Z,13.60
2022-10-17T02:01:06.208Z,13.30
2022-10-17T02:04:09.980Z,12.68
2022-10-17T02:07:13.399Z,12.65
2022-10-17T02:10:32.207Z,12.65
2022-10-17T02:14:13.504Z,12.82
2022-10-17T02:17:36.685Z,12.38
2022-10-17T02:20:54.552Z,13.10
2022-10-17T02:24:07.715Z,13.55
2022-10-17T02:27:21.585Z,13.30
2022-10-17T02:30:47.057Z,13.18
2022-10-17T02:34:10.107Z,11.32
2022-10-17T02:37:15.822Z,10.10
2022-10-17T02:40:21.513Z,11.82
2022-10-17T02:43:23.987Z,11.32
2022-10-17T02:46:28.679Z,10.15
2022-10-17T02:49:36.136Z,8.02
2022-10-17T02:52:52.965Z,10.13
2022-10-17T02:55:58.963Z,10.75
2022-10-17T02:59:03.243Z,11.40
2022-10-17T03:02:06.750Z,10.02
2022-10-17T03:05:10.740Z,11.85
2022-10-17T03:08:12.988Z,10.23
2022-10-17T03:11:14.710Z,12.27
2022-10-17T03:14:16.643Z,12.52
2022-10-17T03:17:18.417Z,5.78
2022-10-17T03:20:20.707Z,9.30
2022-10-17T03:23:22.461Z,9.90
2022-10-17T03:26:24.554Z,10.68
2022-10-17T03:29:26.742Z,10.48
2022-10-17T03:32:29.325Z,10.32
2022-10-17T03:35:31.252Z,9.82
2022-10-17T03:38:34.544Z,10.32
2022-10-17T03:41:36.505Z,9.00
2022-10-17T03:44:38.323Z,8.80
2022-10-17T03:47:40.095Z,9.88
2022-10-17T03:50:41.912Z,10.27
2022-10-17T03:53:43.755Z,10.38
2022-10-17T03:56:45.773Z,9.32
2022-10-17T03:59:52.691Z,9.57
2022-10-17T04:02:55.658Z,9.38
2022-10-17T04:06:02.436Z,9.18
2022-10-17T04:09:07.719Z,9.20
2022-10-17T04:12:27.881Z,9.25
2022-10-17T04:15:31.120Z,10.55
2022-10-17T04:18:33.433Z,9.82
2022-10-17T04:21:35.244Z,10.30
2022-10-17T04:24:41.084Z,10.13
2022-10-17T04:27:54.516Z,8.90
2022-10-17T04:31:18.628Z,8.60
2022-10-17T04:34:40.710Z,9.52
2022-10-17T04:37:42.696Z,10.68
2022-10-17T04:40:51.264Z,9.50
2022-10-17T04:43:53.506Z,8.02
2022-10-17T04:46:56.108Z,6.97
2022-10-17T04:49:57.953Z,10.73
2022-10-17T04:52:59.978Z,9.38
2022-10-17T04:56:07.186Z,5.53
2022-10-17T04:59:08.893Z,8.40
2022-10-17T05:02:12.828Z,4.05
2022-10-17T05:05:14.850Z,2.58
2022-10-17T05:08:18.665Z,7.85
2022-10-17T05:11:25.762Z,10.77
2022-10-17T05:14:28.228Z,2.70
2022-10-17T05:17:29.965Z,8.75
2022-10-17T05:20:32.644Z,5.68
2022-10-17T05:23:35.331Z,7.90
2022-10-17T05:26:37.352Z,4.53
2022-10-17T05:29:39.767Z,8.80
2022-10-17T05:32:53.405Z,10.82
2022-10-17T05:35:56.631Z,8.27
2022-10-17T05:38:59.259Z,9.10
2022-10-17T05:42:02.443Z,9.10
2022-10-17T05:45:05.073Z,8.25
2022-10-17T05:48:08.990Z,9.38
2022-10-17T05:51:11.459Z,9.02
2022-10-17T05:54:15.220Z,9.30
2022-10-17T05:57:17.036Z,9.18
2022-10-17T06:00:19.578Z,8.32
2022-10-17T06:03:28.892Z,5.55
2022-10-17T06:06:31.123Z,8.80
2022-10-17T06:09:33.113Z,9.80
2022-10-17T06:12:34.940Z,9.10
2022-10-17T06:15:37.081Z,9.77
2022-10-17T06:18:45.023Z,8.93
2022-10-17T06:21:47.368Z,8.02
2022-10-17T06:24:54.152Z,8.30
2022-10-17T06:27:55.982Z,9.10
2022-10-17T06:30:58.035Z,8.13
2022-10-17T06:33:59.923Z,8.50
2022-10-17T06:37:01.896Z,8.68
2022-10-17T06:40:06.060Z,7.47
2022-10-17T06:43:07.904Z,7.95
2022-10-17T06:46:32.480Z,4.32
2022-10-17T06:49:37.009Z,7.75
2022-10-17T06:52:52.320Z,7.35
2022-10-17T06:56:13.567Z,6.25
2022-10-17T06:59:41.319Z,5.85
2022-10-17T07:02:51.162Z,8.35
2022-10-17T07:05:54.243Z,9.43
2022-10-17T07:08:56.377Z,8.38
2022-10-17T07:11:58.862Z,8.38
2022-10-17T07:15:01.079Z,8.70
2022-10-17T07:18:03.181Z,7.60
2022-10-17T07:21:05.469Z,11.48
2022-10-17T07:24:07.683Z,7.75
2022-10-17T07:27:10.696Z,10.75
2022-10-17T07:30:12.804Z,10.90
2022-10-17T07:33:21.859Z,10.32
2022-10-17T07:36:24.401Z,10.80
2022-10-17T07:39:26.434Z,11.57
2022-10-17T07:42:28.667Z,11.48
2022-10-17T07:45:30.663Z,11.20
2022-10-17T07:48:32.723Z,11.45
2022-10-17T07:51:34.888Z,11.27
2022-10-17T07:54:36.601Z,13.52
2022-10-17T07:57:40.242Z,12.20
2022-10-17T08:00:42.159Z,13.35
2022-10-17T08:03:45.317Z,14.18
2022-10-17T08:06:47.142Z,13.77
2022-10-17T08:09:48.851Z,15.48
2022-10-17T08:12:50.604Z,14.07
2022-10-17T08:15:52.463Z,15.50
2022-10-17T08:18:54.232Z,15.38
2022-10-17T08:21:58.363Z,8.77
2022-10-17T08:25:02.868Z,9.18
2022-10-17T08:28:05.006Z,13.95
2022-10-17T08:31:09.709Z,16.40
2022-10-17T08:34:11.596Z,13.90
2022-10-17T08:37:13.872Z,9.63
2022-10-17T08:40:21.019Z,11.70
2022-10-17T08:43:41.064Z,14.82
2022-10-17T08:46:46.980Z,16.85
2022-10-17T08:49:53.265Z,17.25
2022-10-17T08:53:02.900Z,13.02
2022-10-17T08:56:19.994Z,11.65
2022-10-17T08:59:30.760Z,9.77
2022-10-17T09:02:50.196Z,16.48
2022-10-17T09:06:00.233Z,5.75
2022-10-17T09:09:16.985Z,11.40
2022-10-17T09:13:05.357Z,10.27
2022-10-17T09:16:39.062Z,12.00
2022-10-17T09:19:49.300Z,10.25
2022-10-17T09:23:01.128Z,8.90
2022-10-17T09:26:02.919Z,10.52
2022-10-17T09:29:15.700Z,7.78
2022-10-17T09:32:24.544Z,14.02
2022-10-17T09:35:28.390Z,11.25
2022-10-17T09:38:39.136Z,14.95
2022-10-17T09:41:46.837Z,14.35
2022-10-17T09:45:15.545Z,15.05
2022-10-17T09:48:22.942Z,11.82
2022-10-17T09:51:26.380Z,7.43
2022-10-17T09:54:39.667Z,8.32
2022-10-17T09:57:58.814Z,13.93
2022-10-17T10:01:21.101Z,12.32
2022-10-17T10:04:30.220Z,12.20
2022-10-17T10:07:39.438Z,11.80
2022-10-17T10:10:44.708Z,11.30
2022-10-17T10:13:49.784Z,7.65
2022-10-17T10:16:53.780Z,12.48
2022-10-17T10:19:56.185Z,11.75
2022-10-17T10:23:18.603Z,11.43
2022-10-17T10:26:24.347Z,9.57
2022-10-17T10:29:32.201Z,11.93
2022-10-17T10:32:37.064Z,7.78
2022-10-17T10:35:41.939Z,11.90
2022-10-17T10:38:53.617Z,10.05
2022-10-17T10:41:55.502Z,9.70
2022-10-17T10:45:29.659Z,6.97
2022-10-17T10:48:37.728Z,7.32
2022-10-17T10:51:48.046Z,11.80
2022-10-17T10:55:14.752Z,5.97
2022-10-17T10:58:41.953Z,8.32
2022-10-17T11:01:53.638Z,7.07
2022-10-17T11:05:04.879Z,10.45
2022-10-17T11:08:28.848Z,8.02
2022-10-17T11:11:39.346Z,7.45
2022-10-17T11:15:20.225Z,10.18
2022-10-17T11:18:33.349Z,9.57
2022-10-17T11:21:48.528Z,6.45
2022-10-17T11:24:59.700Z,8.25
2022-10-17T11:28:05.142Z,8.20
2022-10-17T11:31:12.741Z,6.45
2022-10-17T11:34:29.594Z,6.03
2022-10-17T11:37:36.795Z,6.57
2022-10-17T11:40:43.818Z,7.57
2022-10-17T11:43:57.033Z,7.20
2022-10-17T11:47:07.919Z,8.15
2022-10-17T11:54:12.115Z,6.72
2022-10-17T11:57:37.274Z,3.40
2022-10-17T12:00:41.635Z,8.15
2022-10-17T12:03:56.444Z,6.60
2022-10-17T12:07:16.741Z,8.30
2022-10-17T12:10:47.494Z,8.20
2022-10-17T12:13:52.690Z,7.85
2022-10-17T12:16:54.411Z,7.22
2022-10-17T12:20:21.359Z,7.97
2022-10-17T12:23:31.739Z,9.05
2022-10-17T12:26:33.415Z,4.97
2022-10-17T12:29:35.217Z,4.22
2022-10-17T12:32:53.360Z,7.78
2022-10-17T12:36:31.126Z,5.03
2022-10-17T12:39:35.562Z,6.88
2022-10-17T12:42:47.814Z,3.92
2022-10-17T12:46:00.541Z,4.10
2022-10-17T12:49:04.183Z,4.95
2022-10-17T12:52:16.492Z,4.75
2022-10-17T12:55:20.053Z,7.10
2022-10-17T12:58:21.969Z,5.43
2022-10-17T13:01:46.628Z,4.85
2022-10-17T13:04:50.409Z,6.20
2022-10-17T13:07:53.099Z,6.80
2022-10-17T13:10:55.506Z,5.10
2022-10-17T13:14:03.620Z,7.30
2022-10-17T13:17:07.401Z,8.20
2022-10-17T13:20:27.492Z,3.58
2022-10-17T13:23:37.334Z,7.32
2022-10-17T13:26:45.699Z,5.43
2022-10-17T13:29:47.683Z,5.50
2022-10-17T13:32:49.573Z,5.28
2022-10-17T13:36:06.687Z,7.20
2022-10-17T13:39:16.879Z,7.05
2022-10-17T13:42:31.771Z,5.50
2022-10-17T13:45:37.733Z,6.47
2022-10-17T13:48:39.485Z,7.15
2022-10-17T13:51:46.604Z,3.97
2022-10-17T13:54:53.914Z,6.47
2022-10-17T13:57:55.666Z,5.45
2022-10-17T14:00:58.116Z,6.38
2022-10-17T14:04:09.246Z,6.35
2022-10-17T14:07:58.166Z,6.32
2022-10-17T14:10:57.896Z,4.28
2022-10-17T14:14:01.672Z,6.68
2022-10-17T14:17:03.517Z,5.55
2022-10-17T14:20:47.849Z,6.82
2022-10-17T14:23:39.303Z,4.95
2022-10-17T14:26:52.782Z,6.70
2022-10-17T14:29:57.857Z,6.40
2022-10-17T14:33:03.554Z,5.40
2022-10-17T14:36:05.566Z,6.78
2022-10-17T14:39:16.958Z,6.10
2022-10-17T14:42:23.162Z,6.28
2022-10-17T14:45:34.139Z,6.50
2022-10-17T14:48:36.588Z,5.43
2022-10-17T14:51:50.377Z,3.85
2022-10-17T14:55:12.189Z,5.93
2022-10-17T14:58:18.913Z,7.18
2022-10-17T15:01:20.643Z,5.40
2022-10-17T15:04:22.356Z,5.65
2022-10-17T15:07:24.326Z,4.32
2022-10-17T15:10:32.924Z,6.80
2022-10-17T15:13:41.048Z,5.72
2022-10-17T15:16:45.228Z,3.65
2022-10-17T15:19:48.071Z,3.95
2022-10-17T15:22:49.762Z,6.05
2022-10-17T15:25:51.456Z,5.57
2022-10-17T15:28:54.109Z,7.35
2022-10-17T15:31:55.846Z,6.60
2022-10-17T15:34:57.588Z,6.15
2022-10-17T15:37:59.727Z,6.43
2022-10-17T15:41:01.580Z,6.13
2022-10-17T15:44:03.321Z,6.10
2022-10-17T15:47:05.775Z,7.22
2022-10-17T15:50:08.879Z,6.80
2022-10-17T15:53:13.876Z,5.43
2022-10-17T15:56:24.959Z,5.85
2022-10-17T15:59:32.072Z,4.55
2022-10-17T16:02:34.259Z,5.30
2022-10-17T16:05:36.117Z,4.28
2022-10-17T16:08:37.803Z,5.07
2022-10-17T16:11:42.174Z,4.78
2022-10-17T16:14:44.007Z,4.75
2022-10-17T16:17:45.980Z,4.93
2022-10-17T16:20:47.896Z,3.83
2022-10-17T16:23:49.624Z,4.93
2022-10-17T16:26:51.378Z,3.63
2022-10-17T16:29:53.096Z,4.57
2022-10-17T16:32:55.733Z,4.07
2022-10-17T16:35:57.974Z,4.30
2022-10-17T16:38:59.805Z,4.63
2022-10-17T16:42:01.499Z,4.70
2022-10-17T16:45:03.957Z,3.58
2022-10-17T16:48:06.104Z,4.53
2022-10-17T16:51:08.018Z,4.32
2022-10-17T16:54:09.956Z,4.85
2022-10-17T16:57:11.688Z,3.38
2022-10-17T17:00:14.155Z,4.85
2022-10-17T17:03:15.856Z,4.90
2022-10-17T17:06:24.327Z,3.28
2022-10-17T17:09:26.145Z,5.93
2022-10-17T17:12:27.864Z,3.53
2022-10-17T17:15:29.604Z,3.83
2022-10-17T17:18:31.722Z,3.90
2022-10-17T17:21:34.569Z,2.58
2022-10-17T17:24:36.281Z,3.80
2022-10-17T17:27:37.952Z,4.13
2022-10-17T17:30:39.708Z,3.65
2022-10-17T17:33:42.672Z,3.70
2022-10-17T17:36:44.396Z,3.83
2022-10-17T17:39:46.059Z,4.57
2022-10-17T17:42:47.832Z,4.35
2022-10-17T17:45:49.874Z,4.20
2022-10-17T17:48:53.581Z,3.22
2022-10-17T17:51:55.367Z,3.25
2022-10-17T17:54:57.100Z,3.83
2022-10-17T17:57:59.079Z,3.47
2022-10-17T18:01:01.965Z,2.97
2022-10-17T18:04:05.951Z,3.67
2022-10-17T18:07:07.682Z,3.08
2022-10-17T18:13:16.768Z,3.72
2022-10-17T18:16:18.524Z,3.08
2022-10-17T18:19:20.238Z,3.70
2022-10-17T18:22:23.099Z,2.72
2022-10-17T18:25:24.856Z,3.50
2022-10-17T18:28:27.050Z,4.10
2022-10-17T18:31:32.048Z,3.75
2022-10-17T18:34:33.738Z,4.47
2022-10-17T18:37:35.486Z,3.13
2022-10-17T18:40:37.436Z,4.03
2022-10-17T18:43:41.182Z,2.13
2022-10-17T18:46:43.203Z,3.80
2022-10-17T18:49:44.965Z,3.40
2022-10-17T18:52:47.920Z,4.18
2022-10-17T18:55:51.214Z,3.75
2022-10-17T18:58:53.155Z,5.05
2022-10-17T19:01:54.891Z,4.38
2022-10-17T19:04:56.630Z,3.58
2022-10-17T19:07:58.438Z,4.50
2022-10-17T19:11:11.088Z,4.53
2022-10-17T19:14:13.482Z,5.60
2022-10-17T19:17:15.532Z,4.07
2022-10-17T19:20:17.259Z,2.72
2022-10-17T19:23:19.115Z,4.78
2022-10-17T19:26:21.938Z,4.32
2022-10-17T19:29:26.516Z,3.25
2022-10-17T19:32:28.298Z,4.72
2022-10-17T19:35:30.298Z,3.83
2022-10-17T19:38:32.797Z,4.90
2022-10-17T19:41:36.384Z,2.20
2022-10-17T19:44:38.102Z,3.58
2022-10-17T19:47:40.186Z,3.95
2022-10-17T19:50:44.449Z,5.07
2022-10-17T19:53:46.641Z,3.88
2022-10-17T19:56:48.519Z,3.50
2022-10-17T19:59:51.340Z,5.07
2022-10-17T20:02:55.396Z,4.88
2022-10-17T20:05:57.192Z,4.40
2022-10-17T20:08:59.043Z,4.70
2022-10-17T20:12:00.719Z,5.38
2022-10-17T20:15:02.536Z,5.10
2022-10-17T20:18:05.874Z,4.57
2022-10-17T20:21:10.407Z,5.45
2022-10-17T20:24:14.617Z,5.93
2022-10-17T20:27:16.432Z,4.65
2022-10-17T20:30:18.255Z,5.10
2022-10-17T20:33:20.562Z,3.53
2022-10-17T20:36:23.525Z,5.00
2022-10-17T20:39:25.398Z,5.05
2022-10-17T20:42:28.027Z,4.78
2022-10-17T20:45:43.803Z,4.80
2022-10-17T20:48:53.169Z,5.88
2022-10-17T20:51:55.087Z,5.28
2022-10-17T20:54:56.766Z,2.60
2022-10-17T20:57:58.999Z,4.43
2022-10-17T21:01:10.935Z,3.80
2022-10-17T21:04:45.316Z,3.72
2022-10-17T21:07:34.905Z,5.47
2022-10-17T21:10:36.605Z,4.68
2022-10-17T21:13:38.954Z,3.60
2022-10-17T21:16:41.504Z,4.65
2022-10-17T21:19:43.587Z,4.55
2022-10-17T21:22:45.529Z,4.95
2022-10-17T21:25:47.326Z,4.40
2022-10-17T21:28:49.381Z,2.55
2022-10-17T21:31:51.598Z,2.80
2022-10-17T21:34:53.357Z,3.00
2022-10-17T21:37:55.039Z,3.40
2022-10-17T21:40:56.775Z,3.97
2022-10-17T21:44:05.109Z,3.72
2022-10-17T21:47:06.768Z,4.35
2022-10-17T21:50:08.845Z,3.83
2022-10-17T21:53:10.682Z,2.92
2022-10-17T21:56:15.707Z,1.75
2022-10-17T21:59:17.455Z,2.83
2022-10-17T22:02:19.319Z,3.28
2022-10-17T22:05:21.169Z,3.13
2022-10-17T22:08:23.024Z,1.83
2022-10-17T22:11:28.155Z,3.78
2022-10-17T22:14:29.878Z,4.07
2022-10-17T22:17:31.796Z,4.30
2022-10-17T22:20:34.886Z,2.92
2022-10-17T22:23:38.193Z,3.50
2022-10-17T22:26:40.642Z,3.63
2022-10-17T22:29:42.334Z,3.08
2022-10-17T22:32:44.077Z,3.78
2022-10-17T22:35:46.186Z,3.58
2022-10-17T22:38:48.448Z,3.67
2022-10-17T22:41:50.186Z,4.63
2022-10-17T22:44:51.860Z,2.65
2022-10-17T22:47:54.038Z,2.88
2022-10-17T22:50:57.793Z,3.85
2022-10-17T22:53:59.554Z,2.50
2022-10-17T22:57:01.257Z,4.00
2022-10-17T23:00:07.656Z,2.72
2022-10-17T23:03:10.833Z,2.65
2022-10-17T23:06:13.324Z,3.88
2022-10-17T23:09:15.289Z,2.40
2022-10-17T23:12:17.040Z,3.08
2022-10-17T23:15:18.852Z,3.42
2022-10-17T23:18:21.468Z,2.05
2022-10-17T23:21:23.815Z,4.13
2022-10-17T23:24:25.636Z,3.92
2022-10-17T23:27:27.365Z,2.97
2022-10-17T23:30:29.481Z,3.28
2022-10-17T23:33:31.223Z,3.15
2022-10-17T23:39:39.481Z,2.75
2022-10-17T23:42:41.216Z,3.35
2022-10-17T23:45:42.985Z,2.60
2022-10-17T23:48:44.736Z,3.92
2022-10-17T23:51:46.415Z,3.60
2022-10-17T23:54:48.251Z,3.25
2022-10-17T23:57:50.036Z,4.05
